sensor_id;sensor_type;location;lat;lon;timestamp;pressure;altitude;pressure_sealevel;temperature;humidity
77027;BME280;65956;52.986;17.490;2023-05-10T01:02:25;100602.98;;;5.90;61.58
77027;BME280;65956;52.986;17.490;2023-05-10T01:04:52;100598.14;;;5.90;61.69
77027;BME280;65956;52.986;17.490;2023-05-10T01:07:18;100595.64;;;5.88;62.01
77027;BME280;65956;52.986;17.490;2023-05-10T01:09:44;100597.57;;;5.87;62.20
77027;BME280;65956;52.986;17.490;2023-05-10T01:12:11;100592.15;;;5.85;62.55
77027;BME280;65956;52.986;17.490;2023-05-10T01:14:37;100593.04;;;5.83;62.34
77027;BME280;65956;52.986;17.490;2023-05-10T01:17:04;100589.92;;;5.81;62.58
77027;BME280;65956;52.986;17.490;2023-05-10T01:19:34;100589.72;;;5.78;62.69
77027;BME280;65956;52.986;17.490;2023-05-10T01:22:34;100587.45;;;5.75;62.66
77027;BME280;65956;52.986;17.490;2023-05-10T01:27:47;100588.96;;;5.69;63.16
77027;BME280;65956;52.986;17.490;2023-05-10T01:30:35;100586.58;;;5.67;63.54
77027;BME280;65956;52.986;17.490;2023-05-10T01:33:19;100585.89;;;5.65;63.43
77027;BME280;65956;52.986;17.490;2023-05-10T01:41:18;100583.91;;;5.61;63.86
77027;BME280;65956;52.986;17.490;2023-05-10T01:46:39;100576.71;;;5.61;63.93
77027;BME280;65956;52.986;17.490;2023-05-10T01:49:15;100573.65;;;5.59;63.73
77027;BME280;65956;52.986;17.490;2023-05-10T01:51:49;100576.05;;;5.59;63.90
77027;BME280;65956;52.986;17.490;2023-05-10T01:54:20;100570.16;;;5.55;63.77
77027;BME280;65956;52.986;17.490;2023-05-10T01:56:55;100572.04;;;5.53;63.81
77027;BME280;65956;52.986;17.490;2023-05-10T01:59:28;100569.35;;;5.53;63.99
77027;BME280;65956;52.986;17.490;2023-05-10T02:01:57;100569.47;;;5.52;64.27
77027;BME280;65956;52.986;17.490;2023-05-10T02:04:25;100565.79;;;5.51;63.97
77027;BME280;65956;52.986;17.490;2023-05-10T02:06:53;100561.30;;;5.51;64.68
77027;BME280;65956;52.986;17.490;2023-05-10T02:09:20;100561.23;;;5.51;64.39
77027;BME280;65956;52.986;17.490;2023-05-10T02:11:49;100557.80;;;5.52;64.37
77027;BME280;65956;52.986;17.490;2023-05-10T02:14:16;100553.67;;;5.54;64.45
77027;BME280;65956;52.986;17.490;2023-05-10T02:16:44;100551.72;;;5.56;64.53
77027;BME280;65956;52.986;17.490;2023-05-10T02:19:13;100546.02;;;5.58;65.04
77027;BME280;65956;52.986;17.490;2023-05-10T02:21:41;100549.91;;;5.60;65.08
77027;BME280;65956;52.986;17.490;2023-05-10T02:24:08;100544.38;;;5.60;64.84
77027;BME280;65956;52.986;17.490;2023-05-10T02:26:36;100544.58;;;5.61;64.86
77027;BME280;65956;52.986;17.490;2023-05-10T02:29:06;100541.42;;;5.61;64.49
77027;BME280;65956;52.986;17.490;2023-05-10T02:31:34;100539.83;;;5.61;64.71
77027;BME280;65956;52.986;17.490;2023-05-10T02:34:02;100536.05;;;5.61;64.92
77027;BME280;65956;52.986;17.490;2023-05-10T02:36:28;100538.19;;;5.62;65.02
77027;BME280;65956;52.986;17.490;2023-05-10T02:38:55;100533.81;;;5.60;65.20
77027;BME280;65956;52.986;17.490;2023-05-10T02:41:23;100532.77;;;5.60;65.33
77027;BME280;65956;52.986;17.490;2023-05-10T02:43:56;100531.92;;;5.61;65.26
77027;BME280;65956;52.986;17.490;2023-05-10T02:46:23;100529.48;;;5.61;65.21
77027;BME280;65956;52.986;17.490;2023-05-10T02:48:49;100534.01;;;5.59;65.17
77027;BME280;65956;52.986;17.490;2023-05-10T02:51:16;100531.01;;;5.58;65.31
77027;BME280;65956;52.986;17.490;2023-05-10T02:53:46;100532.33;;;5.57;65.38
77027;BME280;65956;52.986;17.490;2023-05-10T02:56:18;100533.31;;;5.56;64.90
77027;BME280;65956;52.986;17.490;2023-05-10T02:58:45;100534.04;;;5.54;65.30
77027;BME280;65956;52.986;17.490;2023-05-10T03:01:12;100536.23;;;5.54;65.34
77027;BME280;65956;52.986;17.490;2023-05-10T03:03:38;100536.23;;;5.55;65.30
77027;BME280;65956;52.986;17.490;2023-05-10T03:06:04;100536.34;;;5.55;65.23
77027;BME280;65956;52.986;17.490;2023-05-10T03:08:30;100537.21;;;5.55;65.21
77027;BME280;65956;52.986;17.490;2023-05-10T03:11:22;100535.26;;;5.55;65.57
77027;BME280;65956;52.986;17.490;2023-05-10T03:16:22;100538.17;;;5.57;65.17
77027;BME280;65956;52.986;17.490;2023-05-10T03:18:55;100536.34;;;5.57;65.67
77027;BME280;65956;52.986;17.490;2023-05-10T03:21:25;100537.67;;;5.56;65.57
77027;BME280;65956;52.986;17.490;2023-05-10T03:24:05;100537.72;;;5.58;65.45
77027;BME280;65956;52.986;17.490;2023-05-10T03:26:33;100534.85;;;5.59;65.47
77027;BME280;65956;52.986;17.490;2023-05-10T03:29:08;100530.79;;;5.60;65.26
77027;BME280;65956;52.986;17.490;2023-05-10T03:31:35;100531.15;;;5.61;65.16
77027;BME280;65956;52.986;17.490;2023-05-10T03:34:01;100532.84;;;5.62;65.20
77027;BME280;65956;52.986;17.490;2023-05-10T03:36:27;100532.02;;;5.63;65.26
77027;BME280;65956;52.986;17.490;2023-05-10T03:38:54;100529.27;;;5.66;65.11
77027;BME280;65956;52.986;17.490;2023-05-10T03:41:20;100531.94;;;5.69;65.01
77027;BME280;65956;52.986;17.490;2023-05-10T03:43:47;100531.73;;;5.74;65.08
77027;BME280;65956;52.986;17.490;2023-05-10T03:46:13;100527.11;;;5.81;65.08
77027;BME280;65956;52.986;17.490;2023-05-10T03:48:39;100535.17;;;5.90;64.74
77027;BME280;65956;52.986;17.490;2023-05-10T03:51:05;100535.48;;;6.00;64.76
77027;BME280;65956;52.986;17.490;2023-05-10T03:53:31;100538.94;;;6.10;64.41
77027;BME280;65956;52.986;17.490;2023-05-10T03:55:56;100537.77;;;6.18;64.41
77027;BME280;65956;52.986;17.490;2023-05-10T03:58:23;100539.23;;;6.27;64.18
77027;BME280;65956;52.986;17.490;2023-05-10T04:00:50;100534.35;;;6.37;63.99
77027;BME280;65956;52.986;17.490;2023-05-10T04:03:16;100532.38;;;6.48;63.81
77027;BME280;65956;52.986;17.490;2023-05-10T04:05:42;100536.57;;;6.59;63.51
77027;BME280;65956;52.986;17.490;2023-05-10T04:08:09;100533.52;;;6.68;63.36
77027;BME280;65956;52.986;17.490;2023-05-10T04:10:35;100532.73;;;6.79;63.03
77027;BME280;65956;52.986;17.490;2023-05-10T04:13:01;100532.23;;;6.92;62.67
77027;BME280;65956;52.986;17.490;2023-05-10T04:15:27;100531.83;;;7.02;62.48
77027;BME280;65956;52.986;17.490;2023-05-10T04:17:53;100530.06;;;7.13;62.25
77027;BME280;65956;52.986;17.490;2023-05-10T04:20:19;100526.15;;;7.24;61.94
77027;BME280;65956;52.986;17.490;2023-05-10T04:22:45;100522.56;;;7.35;61.60
77027;BME280;65956;52.986;17.490;2023-05-10T04:25:11;100524.17;;;7.46;61.32
77027;BME280;65956;52.986;17.490;2023-05-10T04:27:37;100521.85;;;7.57;61.10
77027;BME280;65956;52.986;17.490;2023-05-10T04:30:03;100519.19;;;7.67;60.66
77027;BME280;65956;52.986;17.490;2023-05-10T04:32:29;100516.20;;;7.78;60.39
77027;BME280;65956;52.986;17.490;2023-05-10T04:34:55;100516.75;;;7.89;60.09
77027;BME280;65956;52.986;17.490;2023-05-10T04:37:21;100517.84;;;7.98;59.84
77027;BME280;65956;52.986;17.490;2023-05-10T04:39:48;100517.10;;;8.08;59.71
77027;BME280;65956;52.986;17.490;2023-05-10T04:42:14;100518.86;;;8.16;59.40
77027;BME280;65956;52.986;17.490;2023-05-10T04:44:41;100518.10;;;8.26;59.24
77027;BME280;65956;52.986;17.490;2023-05-10T04:47:07;100520.92;;;8.34;59.11
77027;BME280;65956;52.986;17.490;2023-05-10T04:49:32;100518.70;;;8.42;58.89
77027;BME280;65956;52.986;17.490;2023-05-10T04:51:58;100518.39;;;8.51;58.76
77027;BME280;65956;52.986;17.490;2023-05-10T04:54:24;100516.15;;;8.58;58.54
77027;BME280;65956;52.986;17.490;2023-05-10T04:56:51;100517.23;;;8.66;58.26
77027;BME280;65956;52.986;17.490;2023-05-10T04:59:17;100515.71;;;8.74;58.53
77027;BME280;65956;52.986;17.490;2023-05-10T05:01:43;100516.58;;;8.83;58.36
77027;BME280;65956;52.986;17.490;2023-05-10T05:04:08;100519.44;;;8.91;57.89
77027;BME280;65956;52.986;17.490;2023-05-10T05:06:35;100520.07;;;9.00;58.09
77027;BME280;65956;52.986;17.490;2023-05-10T05:09:01;100516.13;;;9.10;57.79
77027;BME280;65956;52.986;17.490;2023-05-10T05:11:26;100515.40;;;9.19;57.53
77027;BME280;65956;52.986;17.490;2023-05-10T05:13:53;100512.66;;;9.27;57.29
77027;BME280;65956;52.986;17.490;2023-05-10T05:16:19;100510.26;;;9.39;57.20
77027;BME280;65956;52.986;17.490;2023-05-10T05:18:45;100506.52;;;9.48;56.88
77027;BME280;65956;52.986;17.490;2023-05-10T05:21:18;100507.13;;;9.56;56.01
77027;BME280;65956;52.986;17.490;2023-05-10T05:23:45;100513.77;;;9.65;55.77
77027;BME280;65956;52.986;17.490;2023-05-10T05:26:11;100512.86;;;9.74;56.09
77027;BME280;65956;52.986;17.490;2023-05-10T05:28:37;100515.98;;;9.84;56.12
77027;BME280;65956;52.986;17.490;2023-05-10T05:31:07;100518.80;;;9.96;55.94
77027;BME280;65956;52.986;17.490;2023-05-10T05:33:34;100516.80;;;10.07;55.62
77027;BME280;65956;52.986;17.490;2023-05-10T05:36:01;100515.52;;;10.16;55.13
77027;BME280;65956;52.986;17.490;2023-05-10T05:38:27;100515.26;;;10.26;55.00
77027;BME280;65956;52.986;17.490;2023-05-10T05:40:53;100518.77;;;10.36;54.69
77027;BME280;65956;52.986;17.490;2023-05-10T05:43:19;100516.34;;;10.47;54.56
77027;BME280;65956;52.986;17.490;2023-05-10T05:45:45;100514.09;;;10.57;54.26
77027;BME280;65956;52.986;17.490;2023-05-10T05:48:11;100514.44;;;10.67;53.50
77027;BME280;65956;52.986;17.490;2023-05-10T05:50:37;100515.64;;;10.75;53.62
77027;BME280;65956;52.986;17.490;2023-05-10T05:53:03;100519.38;;;10.83;53.34
77027;BME280;65956;52.986;17.490;2023-05-10T05:55:29;100514.20;;;10.92;53.59
77027;BME280;65956;52.986;17.490;2023-05-10T05:57:58;100516.83;;;11.00;52.52
77027;BME280;65956;52.986;17.490;2023-05-10T06:00:24;100513.77;;;11.07;52.49
77027;BME280;65956;52.986;17.490;2023-05-10T06:02:50;100513.05;;;11.15;52.79
77027;BME280;65956;52.986;17.490;2023-05-10T06:05:16;100513.85;;;11.24;52.52
77027;BME280;65956;52.986;17.490;2023-05-10T06:07:42;100513.78;;;11.34;52.98
77027;BME280;65956;52.986;17.490;2023-05-10T06:10:09;100510.69;;;11.45;52.44
77027;BME280;65956;52.986;17.490;2023-05-10T06:12:35;100514.05;;;11.56;52.52
77027;BME280;65956;52.986;17.490;2023-05-10T06:15:02;100512.33;;;11.67;52.05
77027;BME280;65956;52.986;17.490;2023-05-10T06:17:28;100519.38;;;11.78;51.56
77027;BME280;65956;52.986;17.490;2023-05-10T06:19:54;100516.67;;;11.84;51.03
77027;BME280;65956;52.986;17.490;2023-05-10T06:22:20;100520.71;;;11.93;51.54
77027;BME280;65956;52.986;17.490;2023-05-10T06:24:48;100522.10;;;12.05;51.35
77027;BME280;65956;52.986;17.490;2023-05-10T06:27:14;100515.64;;;12.12;50.79
77027;BME280;65956;52.986;17.490;2023-05-10T06:29:40;100518.41;;;12.20;51.15
77027;BME280;65956;52.986;17.490;2023-05-10T06:32:06;100516.95;;;12.31;50.50
77027;BME280;65956;52.986;17.490;2023-05-10T06:34:32;100519.03;;;12.38;49.63
77027;BME280;65956;52.986;17.490;2023-05-10T06:36:58;100514.25;;;12.44;49.94
77027;BME280;65956;52.986;17.490;2023-05-10T06:39:24;100516.52;;;12.53;50.03
77027;BME280;65956;52.986;17.490;2023-05-10T06:41:50;100516.70;;;12.62;49.93
77027;BME280;65956;52.986;17.490;2023-05-10T06:44:18;100516.50;;;12.73;49.42
77027;BME280;65956;52.986;17.490;2023-05-10T06:46:44;100519.38;;;12.80;49.27
77027;BME280;65956;52.986;17.490;2023-05-10T06:49:10;100517.75;;;12.90;49.74
77027;BME280;65956;52.986;17.490;2023-05-10T06:51:36;100518.90;;;13.02;49.09
77027;BME280;65956;52.986;17.490;2023-05-10T06:54:02;100520.17;;;13.13;49.48
77027;BME280;65956;52.986;17.490;2023-05-10T06:56:28;100519.34;;;13.27;49.09
77027;BME280;65956;52.986;17.490;2023-05-10T06:58:54;100521.77;;;13.37;48.30
77027;BME280;65956;52.986;17.490;2023-05-10T07:01:21;100523.42;;;13.45;48.71
77027;BME280;65956;52.986;17.490;2023-05-10T07:03:47;100518.55;;;13.54;48.45
77027;BME280;65956;52.986;17.490;2023-05-10T07:06:13;100519.84;;;13.66;48.55
77027;BME280;65956;52.986;17.490;2023-05-10T07:08:39;100517.14;;;13.78;47.91
77027;BME280;65956;52.986;17.490;2023-05-10T07:11:06;100517.68;;;13.88;47.46
77027;BME280;65956;52.986;17.490;2023-05-10T07:13:36;100515.34;;;13.96;47.41
77027;BME280;65956;52.986;17.490;2023-05-10T07:16:02;100519.48;;;14.06;47.46
77027;BME280;65956;52.986;17.490;2023-05-10T07:18:28;100517.73;;;14.18;47.62
77027;BME280;65956;52.986;17.490;2023-05-10T07:20:54;100515.86;;;14.29;47.18
77027;BME280;65956;52.986;17.490;2023-05-10T07:23:20;100513.38;;;14.40;46.75
77027;BME280;65956;52.986;17.490;2023-05-10T07:25:47;100516.30;;;14.49;46.75
77027;BME280;65956;52.986;17.490;2023-05-10T07:28:15;100514.27;;;14.60;46.02
77027;BME280;65956;52.986;17.490;2023-05-10T07:30:42;100516.30;;;14.70;46.15
77027;BME280;65956;52.986;17.490;2023-05-10T07:33:10;100518.83;;;14.81;45.63
77027;BME280;65956;52.986;17.490;2023-05-10T07:35:37;100515.33;;;14.90;45.45
77027;BME280;65956;52.986;17.490;2023-05-10T07:38:02;100518.08;;;15.00;45.49
77027;BME280;65956;52.986;17.490;2023-05-10T07:40:29;100513.85;;;15.10;45.28
77027;BME280;65956;52.986;17.490;2023-05-10T07:42:55;100513.95;;;15.18;45.18
77027;BME280;65956;52.986;17.490;2023-05-10T07:45:22;100517.09;;;15.29;44.89
77027;BME280;65956;52.986;17.490;2023-05-10T07:47:49;100513.34;;;15.38;43.99
77027;BME280;65956;52.986;17.490;2023-05-10T07:50:16;100514.14;;;15.44;43.82
77027;BME280;65956;52.986;17.490;2023-05-10T07:52:41;100511.50;;;15.50;44.22
77027;BME280;65956;52.986;17.490;2023-05-10T07:55:08;100509.75;;;15.58;43.56
77027;BME280;65956;52.986;17.490;2023-05-10T07:57:34;100510.33;;;15.64;43.70
77027;BME280;65956;52.986;17.490;2023-05-10T08:00:01;100515.45;;;15.71;43.64
77027;BME280;65956;52.986;17.490;2023-05-10T08:02:27;100517.37;;;15.80;43.58
77027;BME280;65956;52.986;17.490;2023-05-10T08:04:53;100515.12;;;15.88;42.78
77027;BME280;65956;52.986;17.490;2023-05-10T08:07:19;100513.81;;;15.96;42.82
77027;BME280;65956;52.986;17.490;2023-05-10T08:09:45;100511.95;;;16.01;42.16
77027;BME280;65956;52.986;17.490;2023-05-10T08:12:10;100513.46;;;16.07;43.00
77027;BME280;65956;52.986;17.490;2023-05-10T08:14:36;100510.00;;;16.17;42.87
77027;BME280;65956;52.986;17.490;2023-05-10T08:17:03;100506.09;;;16.29;42.96
77027;BME280;65956;52.986;17.490;2023-05-10T08:19:29;100508.16;;;16.39;42.48
77027;BME280;65956;52.986;17.490;2023-05-10T10:50:44;100451.21;;;21.80;29.61
77027;BME280;65956;52.986;17.490;2023-05-10T10:53:11;100453.52;;;22.10;29.37
77027;BME280;65956;52.986;17.490;2023-05-10T10:55:46;100459.06;;;22.31;27.90
77027;BME280;65956;52.986;17.490;2023-05-10T10:58:29;100454.20;;;22.56;28.04
77027;BME280;65956;52.986;17.490;2023-05-10T11:01:11;100451.06;;;22.81;27.25
77027;BME280;65956;52.986;17.490;2023-05-10T11:03:38;100452.71;;;23.01;26.98
77027;BME280;65956;52.986;17.490;2023-05-10T11:06:04;100457.20;;;23.20;26.80
77027;BME280;65956;52.986;17.490;2023-05-10T11:08:35;100443.00;;;23.29;26.13
77027;BME280;65956;52.986;17.490;2023-05-10T11:11:07;100445.58;;;23.45;26.78
77027;BME280;65956;52.986;17.490;2023-05-10T11:13:42;100444.83;;;23.56;26.38
77027;BME280;65956;52.986;17.490;2023-05-10T11:16:24;100445.63;;;23.75;26.37
77027;BME280;65956;52.986;17.490;2023-05-10T11:21:20;100443.24;;;24.26;25.92
77027;BME280;65956;52.986;17.490;2023-05-10T11:23:52;100434.52;;;24.40;25.63
77027;BME280;65956;52.986;17.490;2023-05-10T11:26:43;100440.31;;;24.65;25.94
77027;BME280;65956;52.986;17.490;2023-05-10T11:29:09;100432.42;;;24.92;25.03
77027;BME280;65956;52.986;17.490;2023-05-10T11:31:42;100426.11;;;25.03;24.28
77027;BME280;65956;52.986;17.490;2023-05-10T11:34:09;100415.35;;;25.15;24.21
77027;BME280;65956;52.986;17.490;2023-05-10T11:36:35;100420.16;;;25.19;24.35
77027;BME280;65956;52.986;17.490;2023-05-10T11:39:03;100426.86;;;25.38;23.56
77027;BME280;65956;52.986;17.490;2023-05-10T11:41:30;100424.88;;;25.53;23.57
77027;BME280;65956;52.986;17.490;2023-05-10T11:43:57;100420.66;;;25.64;23.61
77027;BME280;65956;52.986;17.490;2023-05-10T11:46:25;100417.59;;;25.59;24.15
77027;BME280;65956;52.986;17.490;2023-05-10T11:48:55;100419.20;;;25.59;24.03
77027;BME280;65956;52.986;17.490;2023-05-10T11:51:24;100424.24;;;25.56;23.94
77027;BME280;65956;52.986;17.490;2023-05-10T11:53:53;100420.58;;;25.42;23.01
77027;BME280;65956;52.986;17.490;2023-05-10T11:56:20;100411.21;;;25.17;23.39
77027;BME280;65956;52.986;17.490;2023-05-10T11:58:53;100419.80;;;25.08;24.57
77027;BME280;65956;52.986;17.490;2023-05-10T12:01:21;100420.81;;;25.29;24.46
77027;BME280;65956;52.986;17.490;2023-05-10T12:03:47;100413.16;;;25.44;23.85
77027;BME280;65956;52.986;17.490;2023-05-10T12:06:13;100410.32;;;25.51;23.70
77027;BME280;65956;52.986;17.490;2023-05-10T12:08:44;100411.95;;;25.47;23.49
77027;BME280;65956;52.986;17.490;2023-05-10T12:11:12;100413.22;;;25.39;23.33
77027;BME280;65956;52.986;17.490;2023-05-10T12:13:41;100414.23;;;25.30;23.19
77027;BME280;65956;52.986;17.490;2023-05-10T12:16:18;100409.18;;;25.13;22.87
77027;BME280;65956;52.986;17.490;2023-05-10T12:18:48;100409.91;;;25.05;23.59
77027;BME280;65956;52.986;17.490;2023-05-10T12:21:15;100417.34;;;25.12;24.21
77027;BME280;65956;52.986;17.490;2023-05-10T12:23:41;100419.04;;;24.99;23.33
77027;BME280;65956;52.986;17.490;2023-05-10T12:26:10;100413.70;;;25.12;23.43
77027;BME280;65956;52.986;17.490;2023-05-10T12:28:37;100407.97;;;25.97;23.11
77027;BME280;65956;52.986;17.490;2023-05-10T12:31:03;100405.50;;;28.01;21.16
77027;BME280;65956;52.986;17.490;2023-05-10T12:33:42;100409.74;;;29.45;19.18
77027;BME280;65956;52.986;17.490;2023-05-10T12:36:09;100405.59;;;30.17;17.74
77027;BME280;65956;52.986;17.490;2023-05-10T12:38:40;100407.58;;;31.02;17.69
77027;BME280;65956;52.986;17.490;2023-05-10T12:41:14;100404.91;;;31.61;16.96
77027;BME280;65956;52.986;17.490;2023-05-10T12:43:41;100410.47;;;32.08;16.44
77027;BME280;65956;52.986;17.490;2023-05-10T12:46:08;100409.16;;;32.42;15.82
77027;BME280;65956;52.986;17.490;2023-05-10T12:48:36;100408.36;;;32.64;15.74
77027;BME280;65956;52.986;17.490;2023-05-10T12:51:03;100401.40;;;32.91;15.85
77027;BME280;65956;52.986;17.490;2023-05-10T12:53:30;100396.30;;;33.09;15.73
77027;BME280;65956;52.986;17.490;2023-05-10T12:55:57;100397.67;;;33.03;15.29
77027;BME280;65956;52.986;17.490;2023-05-10T12:58:23;100401.70;;;33.23;15.84
77027;BME280;65956;52.986;17.490;2023-05-10T13:00:50;100393.42;;;33.61;15.48
77027;BME280;65956;52.986;17.490;2023-05-10T13:03:17;100393.61;;;33.86;15.09
77027;BME280;65956;52.986;17.490;2023-05-10T13:05:43;100392.86;;;34.38;15.09
77027;BME280;65956;52.986;17.490;2023-05-10T13:08:09;100385.31;;;34.64;14.85
77027;BME280;65956;52.986;17.490;2023-05-10T13:10:35;100391.70;;;34.76;14.95
77027;BME280;65956;52.986;17.490;2023-05-10T13:13:01;100385.52;;;35.10;14.75
77027;BME280;65956;52.986;17.490;2023-05-10T13:15:27;100378.31;;;35.32;14.30
77027;BME280;65956;52.986;17.490;2023-05-10T13:17:53;100383.89;;;35.10;14.35
77027;BME280;65956;52.986;17.490;2023-05-10T13:20:20;100378.89;;;35.02;14.20
77027;BME280;65956;52.986;17.490;2023-05-10T13:22:46;100380.35;;;35.05;14.49
77027;BME280;65956;52.986;17.490;2023-05-10T13:25:12;100377.20;;;34.93;14.63
77027;BME280;65956;52.986;17.490;2023-05-10T13:27:41;100369.66;;;34.74;14.07
77027;BME280;65956;52.986;17.490;2023-05-10T13:30:08;100374.90;;;34.48;14.19
77027;BME280;65956;52.986;17.490;2023-05-10T13:32:35;100372.34;;;34.04;14.32
77027;BME280;65956;52.986;17.490;2023-05-10T13:35:01;100377.60;;;33.78;14.46
77027;BME280;65956;52.986;17.490;2023-05-10T13:37:29;100371.21;;;33.76;14.58
77027;BME280;65956;52.986;17.490;2023-05-10T13:39:55;100370.15;;;33.57;14.44
77027;BME280;65956;52.986;17.490;2023-05-10T13:42:22;100369.89;;;33.41;14.57
77027;BME280;65956;52.986;17.490;2023-05-10T13:44:51;100366.14;;;33.19;14.82
77027;BME280;65956;52.986;17.490;2023-05-10T13:47:17;100363.53;;;33.10;15.10
77027;BME280;65956;52.986;17.490;2023-05-10T13:49:43;100364.18;;;32.76;15.61
77027;BME280;65956;52.986;17.490;2023-05-10T13:52:09;100356.86;;;32.44;15.61
77027;BME280;65956;52.986;17.490;2023-05-10T13:54:36;100360.29;;;32.25;15.90
77027;BME280;65956;52.986;17.490;2023-05-10T13:57:04;100355.93;;;32.03;15.58
77027;BME280;65956;52.986;17.490;2023-05-10T13:59:30;100356.48;;;32.01;16.06
77027;BME280;65956;52.986;17.490;2023-05-10T14:02:00;100359.46;;;31.71;16.04
77027;BME280;65956;52.986;17.490;2023-05-10T14:04:28;100355.02;;;31.07;16.53
77027;BME280;65956;52.986;17.490;2023-05-10T14:06:54;100351.83;;;30.54;16.82
77027;BME280;65956;52.986;17.490;2023-05-10T14:09:20;100346.59;;;30.22;17.06
77027;BME280;65956;52.986;17.490;2023-05-10T14:11:46;100342.86;;;29.92;17.72
77027;BME280;65956;52.986;17.490;2023-05-10T14:14:12;100342.69;;;29.58;18.11
77027;BME280;65956;52.986;17.490;2023-05-10T14:16:43;100335.44;;;29.17;18.38
77027;BME280;65956;52.986;17.490;2023-05-10T14:19:10;100335.13;;;29.10;18.88
77027;BME280;65956;52.986;17.490;2023-05-10T14:21:37;100334.11;;;29.16;18.76
77027;BME280;65956;52.986;17.490;2023-05-10T14:24:03;100335.25;;;29.08;18.80
77027;BME280;65956;52.986;17.490;2023-05-10T14:26:29;100335.53;;;29.06;19.30
77027;BME280;65956;52.986;17.490;2023-05-10T14:28:55;100333.20;;;29.17;19.23
77027;BME280;65956;52.986;17.490;2023-05-10T14:31:21;100325.48;;;29.17;18.88
77027;BME280;65956;52.986;17.490;2023-05-10T14:33:47;100325.90;;;29.38;18.74
77027;BME280;65956;52.986;17.490;2023-05-10T14:36:13;100327.04;;;29.53;18.28
77027;BME280;65956;52.986;17.490;2023-05-10T14:38:40;100324.65;;;29.68;18.30
77027;BME280;65956;52.986;17.490;2023-05-10T14:41:06;100321.08;;;29.79;18.66
77027;BME280;65956;52.986;17.490;2023-05-10T14:43:32;100320.62;;;29.94;18.55
77027;BME280;65956;52.986;17.490;2023-05-10T14:45:58;100321.52;;;30.14;18.29
77027;BME280;65956;52.986;17.490;2023-05-10T14:48:24;100317.70;;;30.44;18.28
77027;BME280;65956;52.986;17.490;2023-05-10T14:50:50;100318.73;;;30.36;17.88
77027;BME280;65956;52.986;17.490;2023-05-10T14:53:18;100318.39;;;30.38;17.97
77027;BME280;65956;52.986;17.490;2023-05-10T14:55:44;100316.10;;;30.39;18.22
77027;BME280;65956;52.986;17.490;2023-05-10T14:58:10;100313.30;;;30.28;18.17
77027;BME280;65956;52.986;17.490;2023-05-10T15:00:36;100310.48;;;29.86;18.22
77027;BME280;65956;52.986;17.490;2023-05-10T15:03:02;100313.02;;;29.55;18.59
77027;BME280;65956;52.986;17.490;2023-05-10T15:05:27;100314.91;;;29.72;18.78
77027;BME280;65956;52.986;17.490;2023-05-10T15:07:53;100314.13;;;29.84;18.34
77027;BME280;65956;52.986;17.490;2023-05-10T15:10:19;100313.85;;;29.83;18.35
77027;BME280;65956;52.986;17.490;2023-05-10T15:12:45;100307.97;;;29.97;18.60
77027;BME280;65956;52.986;17.490;2023-05-10T15:15:11;100310.73;;;30.01;18.66
77027;BME280;65956;52.986;17.490;2023-05-10T15:17:37;100310.81;;;29.61;18.85
77027;BME280;65956;52.986;17.490;2023-05-10T15:20:03;100312.13;;;29.40;19.29
77027;BME280;65956;52.986;17.490;2023-05-10T15:22:30;100311.39;;;29.42;19.29
77027;BME280;65956;52.986;17.490;2023-05-10T15:24:58;100313.91;;;29.32;18.63
77027;BME280;65956;52.986;17.490;2023-05-10T15:27:25;100317.73;;;29.27;18.89
77027;BME280;65956;52.986;17.490;2023-05-10T15:29:52;100315.17;;;29.24;19.08
77027;BME280;65956;52.986;17.490;2023-05-10T15:32:19;100317.90;;;29.10;19.35
77027;BME280;65956;52.986;17.490;2023-05-10T15:34:44;100316.73;;;29.13;19.76
77027;BME280;65956;52.986;17.490;2023-05-10T15:37:10;100316.59;;;29.19;19.78
77027;BME280;65956;52.986;17.490;2023-05-10T15:39:36;100316.80;;;29.10;19.77
77027;BME280;65956;52.986;17.490;2023-05-10T15:42:02;100317.52;;;28.87;19.30
77027;BME280;65956;52.986;17.490;2023-05-10T15:44:29;100316.98;;;28.72;19.20
77027;BME280;65956;52.986;17.490;2023-05-10T15:46:55;100316.05;;;28.87;19.24
77027;BME280;65956;52.986;17.490;2023-05-10T15:49:21;100318.48;;;28.85;18.97
77027;BME280;65956;52.986;17.490;2023-05-10T15:51:47;100314.67;;;28.88;18.98
77027;BME280;65956;52.986;17.490;2023-05-10T15:54:14;100318.96;;;29.10;19.01
77027;BME280;65956;52.986;17.490;2023-05-10T15:56:40;100318.11;;;29.27;19.07
77027;BME280;65956;52.986;17.490;2023-05-10T15:59:06;100316.69;;;29.37;18.94
77027;BME280;65956;52.986;17.490;2023-05-10T16:01:33;100318.11;;;29.54;18.41
77027;BME280;65956;52.986;17.490;2023-05-10T16:03:59;100319.33;;;29.48;18.46
77027;BME280;65956;52.986;17.490;2023-05-10T16:06:25;100319.24;;;29.53;18.52
77027;BME280;65956;52.986;17.490;2023-05-10T16:08:51;100317.59;;;29.63;18.55
77027;BME280;65956;52.986;17.490;2023-05-10T16:11:17;100315.91;;;29.63;18.52
77027;BME280;65956;52.986;17.490;2023-05-10T16:13:43;100322.02;;;29.49;18.45
77027;BME280;65956;52.986;17.490;2023-05-10T16:16:09;100323.56;;;29.44;18.68
77027;BME280;65956;52.986;17.490;2023-05-10T16:18:35;100321.80;;;29.27;19.02
77027;BME280;65956;52.986;17.490;2023-05-10T16:21:02;100322.75;;;29.05;19.14
77027;BME280;65956;52.986;17.490;2023-05-10T16:23:28;100327.34;;;28.88;19.13
77027;BME280;65956;52.986;17.490;2023-05-10T16:25:55;100329.96;;;28.76;19.25
77027;BME280;65956;52.986;17.490;2023-05-10T16:28:21;100330.70;;;28.72;19.45
77027;BME280;65956;52.986;17.490;2023-05-10T16:30:47;100331.83;;;28.54;19.71